Time;durP1;ratioP1;P1;durP2;ratioP2;P2;SDS_P1;SDS_P2;PMS_P1;PMS_P2;Temp;Humidity;BMP_temperature;BMP_pressure;BME280_temperature;BME280_humidity;BME280_pressure;Samples;Min_cycle;Max_cycle;Signal;HPM_P1;HPM_P2
2024/03/14 00:00:22;;;;;;;49.00;33.22;;;10.10;97.70;;;;;;5032275;28;20075;-77
2024/03/14 00:02:48;;;;;;;45.67;33.55;;;10.10;97.60;;;;;;5042651;28;20075;-77
2024/03/14 00:05:14;;;;;;;54.65;35.05;;;10.00;98.30;;;;;;5032724;28;20029;-78
2024/03/14 00:07:44;;;;;;;50.30;35.30;;;10.00;98.90;;;;;;5031516;28;20032;-78
2024/03/14 00:10:09;;;;;;;51.28;34.30;;;10.00;97.60;;;;;;5041266;28;20033;-77
2024/03/14 00:12:36;;;;;;;52.17;34.63;;;10.00;97.00;;;;;;5042756;28;20032;-78
2024/03/14 00:15:01;;;;;;;46.63;33.58;;;10.00;97.90;;;;;;5040662;28;20022;-78
2024/03/14 00:17:27;;;;;;;53.38;36.28;;;10.00;97.60;;;;;;5032274;28;20036;-78
2024/03/14 00:19:54;;;;;;;50.78;34.78;;;10.00;97.80;;;;;;5025512;28;20017;-78
2024/03/14 00:22:21;;;;;;;56.05;36.22;;;10.00;98.10;;;;;;5039410;28;20033;-78
2024/03/14 00:24:47;;;;;;;54.10;34.88;;;10.00;98.60;;;;;;5039809;28;20018;-77
2024/03/14 00:27:13;;;;;;;44.10;33.72;;;10.00;98.90;;;;;;5042914;28;20031;-77
2024/03/14 00:29:41;;;;;;;51.72;35.92;;;10.00;98.20;;;;;;5026281;28;20033;-78
2024/03/14 00:32:07;;;;;;;52.75;35.08;;;10.00;98.50;;;;;;5041140;28;20022;-77
2024/03/14 00:34:33;;;;;;;49.67;36.20;;;10.00;98.60;;;;;;5048981;28;20025;-78
2024/03/14 00:37:01;;;;;;;49.42;35.08;;;10.00;97.80;;;;;;5043823;28;20032;-78
2024/03/14 00:39:26;;;;;;;49.95;35.60;;;10.00;96.70;;;;;;5034177;28;20141;-78
2024/03/14 00:41:53;;;;;;;51.80;35.05;;;10.00;97.10;;;;;;5041670;28;20424;-77
2024/03/14 00:44:19;;;;;;;51.38;34.75;;;10.00;97.30;;;;;;5042991;28;20026;-77
2024/03/14 00:46:45;;;;;;;53.95;34.80;;;10.00;97.30;;;;;;5040070;28;20112;-78
2024/03/14 00:49:12;;;;;;;53.75;36.85;;;10.00;97.20;;;;;;5043841;28;20045;-78
2024/03/14 00:51:37;;;;;;;55.40;35.60;;;9.90;97.30;;;;;;5032698;28;20115;-77
2024/03/14 00:54:04;;;;;;;54.08;35.80;;;10.00;97.00;;;;;;5041526;28;20136;-78
2024/03/14 00:56:30;;;;;;;48.83;34.33;;;9.90;97.20;;;;;;5033120;28;20388;-78
2024/03/14 00:58:56;;;;;;;56.50;35.33;;;10.00;97.10;;;;;;5031732;28;20048;-78
2024/03/14 01:01:24;;;;;;;52.38;36.63;;;9.90;97.70;;;;;;5043310;28;20395;-78
2024/03/14 01:03:53;;;;;;;50.47;33.70;;;9.90;98.00;;;;;;5044184;28;20479;-77
2024/03/14 01:06:19;;;;;;;52.45;35.10;;;9.90;97.40;;;;;;5022883;28;20026;-77
2024/03/14 01:08:45;;;;;;;50.53;35.38;;;9.90;96.90;;;;;;5043459;28;20029;-77
2024/03/14 01:11:11;;;;;;;52.55;36.58;;;9.90;97.20;;;;;;5040205;28;20038;-78
2024/03/14 01:13:37;;;;;;;53.33;35.95;;;9.90;98.40;;;;;;5043347;28;20472;-78
2024/03/14 01:16:04;;;;;;;51.13;35.83;;;9.90;99.00;;;;;;5039278;28;20028;-78
2024/03/14 01:18:30;;;;;;;49.30;36.08;;;9.90;99.20;;;;;;5025212;28;20028;-78
2024/03/14 01:20:56;;;;;;;53.80;36.33;;;9.90;99.90;;;;;;5040621;28;20405;-78
2024/03/14 01:23:22;;;;;;;51.13;36.05;;;9.90;99.80;;;;;;5043526;28;20043;-78
2024/03/14 01:25:48;;;;;;;55.25;35.28;;;9.80;99.90;;;;;;5041240;28;20041;-78
2024/03/14 01:28:14;;;;;;;60.38;38.53;;;9.90;99.90;;;;;;5043908;28;20025;-78
2024/03/14 01:30:42;;;;;;;52.67;36.83;;;9.80;99.70;;;;;;5041228;28;20471;-78
2024/03/14 01:33:09;;;;;;;52.92;36.38;;;9.90;99.90;;;;;;5039281;28;20148;-78
2024/03/14 01:35:35;;;;;;;52.75;37.75;;;9.80;99.80;;;;;;5039343;28;20491;-78
2024/03/14 01:38:01;;;;;;;54.05;37.47;;;9.80;99.70;;;;;;5042134;28;20116;-78
2024/03/14 01:40:26;;;;;;;51.03;36.88;;;9.80;99.90;;;;;;5040228;28;20059;-78
2024/03/14 01:42:56;;;;;;;55.42;37.45;;;9.80;99.90;;;;;;5042824;28;20426;-78
2024/03/14 01:45:22;;;;;;;55.50;39.63;;;9.80;99.90;;;;;;5040223;28;20034;-78
2024/03/14 01:47:49;;;;;;;56.50;38.47;;;9.80;99.90;;;;;;5042946;28;20095;-77
2024/03/14 01:50:15;;;;;;;58.65;38.60;;;9.80;99.90;;;;;;5033425;28;20025;-78
2024/03/14 01:52:42;;;;;;;61.17;39.05;;;9.80;99.90;;;;;;5026109;28;20435;-78
2024/03/14 01:55:11;;;;;;;53.13;37.47;;;9.80;99.90;;;;;;5039465;28;20026;-78
2024/03/14 01:57:38;;;;;;;54.25;37.05;;;9.80;99.90;;;;;;5039363;28;20025;-78
2024/03/14 02:00:05;;;;;;;55.22;38.28;;;9.80;99.90;;;;;;5042836;28;20035;-78
2024/03/14 02:02:35;;;;;;;54.55;37.70;;;9.80;99.90;;;;;;5039526;28;20021;-77
2024/03/14 02:05:15;;;;;;;57.15;38.45;;;9.80;99.90;;;;;;5042849;28;20088;-78
2024/03/14 02:07:42;;;;;;;52.08;37.58;;;9.70;99.90;;;;;;5040434;28;20485;-78
2024/03/14 02:10:13;;;;;;;59.38;41.60;;;9.70;99.90;;;;;;5041898;28;20024;-78
2024/03/14 02:12:41;;;;;;;59.67;40.78;;;9.70;99.90;;;;;;5040577;28;20055;-78
2024/03/14 02:15:07;;;;;;;57.17;39.10;;;9.70;99.90;;;;;;5031691;28;20053;-78
2024/03/14 02:17:34;;;;;;;54.15;37.67;;;9.70;99.90;;;;;;5040360;28;20021;-78
2024/03/14 02:20:00;;;;;;;59.35;39.22;;;9.70;99.90;;;;;;5045455;28;20017;-78
2024/03/14 02:22:27;;;;;;;54.80;39.30;;;9.70;99.90;;;;;;5039745;28;20036;-78
2024/03/14 02:24:53;;;;;;;58.90;38.90;;;9.70;99.90;;;;;;5032522;28;20147;-78
2024/03/14 02:27:23;;;;;;;53.72;38.75;;;9.70;99.90;;;;;;5020132;28;20095;-78
2024/03/14 02:29:48;;;;;;;57.00;39.53;;;9.70;99.90;;;;;;5043285;28;20026;-78
2024/03/14 02:32:14;;;;;;;55.22;41.20;;;9.70;99.90;;;;;;5046566;28;20025;-78
2024/03/14 02:34:40;;;;;;;55.67;38.60;;;9.70;99.90;;;;;;5050290;28;20021;-78
2024/03/14 02:37:06;;;;;;;60.95;40.90;;;9.70;99.90;;;;;;5033406;28;20484;-78
2024/03/14 02:39:32;;;;;;;58.95;40.00;;;9.70;99.90;;;;;;5045913;28;20468;-78
2024/03/14 02:42:01;;;;;;;58.20;39.15;;;9.70;99.90;;;;;;5033946;28;20029;-78
2024/03/14 02:44:27;;;;;;;54.63;38.30;;;9.60;99.90;;;;;;5033865;28;20052;-78
2024/03/14 02:46:53;;;;;;;54.78;38.55;;;9.70;99.90;;;;;;5045228;28;20025;-78
2024/03/14 02:49:20;;;;;;;58.13;40.17;;;9.60;99.90;;;;;;5046071;28;20045;-78
2024/03/14 02:51:46;;;;;;;58.20;42.03;;;9.60;99.90;;;;;;5044138;28;20025;-78
2024/03/14 02:54:16;;;;;;;60.38;38.63;;;9.60;99.90;;;;;;5044298;28;20041;-78
2024/03/14 02:56:49;;;;;;;57.50;38.42;;;9.60;99.90;;;;;;5034447;28;20029;-77
2024/03/14 02:59:21;;;;;;;55.88;39.03;;;9.60;99.90;;;;;;5045144;28;20024;-78
2024/03/14 03:01:47;;;;;;;;;;;9.60;99.90;;;;;;5043163;28;20481;-78
2024/03/14 03:04:14;;;;;;;58.15;39.72;;;9.60;99.90;;;;;;5033334;28;20246;-78
2024/03/14 03:06:54;;;;;;;61.72;43.13;;;9.50;99.90;;;;;;5045040;28;20033;-77
2024/03/14 03:09:27;;;;;;;63.25;42.25;;;9.50;99.90;;;;;;5042468;28;20025;-77
2024/03/14 03:11:52;;;;;;;59.97;40.78;;;9.50;99.90;;;;;;5035179;28;20103;-78
2024/03/14 03:14:18;;;;;;;59.60;40.78;;;9.50;99.90;;;;;;5021469;28;20057;-78
2024/03/14 03:16:44;;;;;;;58.40;40.72;;;9.50;99.90;;;;;;5042247;28;20022;-78
2024/03/14 03:19:10;;;;;;;61.30;41.97;;;9.50;99.90;;;;;;5035881;28;20035;-78
2024/03/14 03:21:37;;;;;;;63.03;41.05;;;9.50;99.90;;;;;;5045645;28;20066;-77
2024/03/14 03:24:07;;;;;;;57.15;38.55;;;9.50;99.90;;;;;;5032730;28;20528;-78
2024/03/14 03:26:36;;;;;;;61.78;41.97;;;9.50;99.90;;;;;;5042058;28;20401;-78
2024/03/14 03:29:02;;;;;;;60.90;41.85;;;9.50;99.90;;;;;;5041825;28;20124;-78
2024/03/14 03:31:29;;;;;;;60.50;41.08;;;9.50;99.90;;;;;;5045153;28;20033;-78
2024/03/14 03:33:55;;;;;;;59.58;42.38;;;9.50;99.90;;;;;;5045471;28;20025;-78
2024/03/14 03:36:24;;;;;;;66.88;42.97;;;9.50;99.90;;;;;;5042538;28;20433;-78
2024/03/14 03:38:50;;;;;;;58.50;40.95;;;9.50;99.90;;;;;;5043584;28;20028;-78
2024/03/14 03:41:23;;;;;;;59.50;42.42;;;9.40;99.90;;;;;;5042681;28;20021;-78
2024/03/14 03:43:52;;;;;;;63.17;43.78;;;9.40;99.90;;;;;;5044863;28;20458;-78
2024/03/14 03:46:18;;;;;;;59.72;41.58;;;9.40;99.90;;;;;;5035541;28;20472;-78
2024/03/14 03:48:44;;;;;;;62.03;41.65;;;9.40;99.90;;;;;;5041668;28;20099;-78
2024/03/14 03:51:13;;;;;;;63.30;43.92;;;9.40;99.90;;;;;;5045464;28;20057;-78
2024/03/14 03:53:39;;;;;;;65.07;43.58;;;9.40;99.90;;;;;;5045510;28;20040;-78
2024/03/14 03:56:04;;;;;;;63.53;40.33;;;9.40;99.90;;;;;;5047824;28;20395;-78
2024/03/14 03:58:32;;;;;;;60.55;42.42;;;9.40;99.90;;;;;;5040822;28;20392;-78
2024/03/14 04:01:12;;;;;;;63.67;42.05;;;9.40;99.90;;;;;;5042579;28;20009;-78
2024/03/14 04:03:40;;;;;;;63.17;44.03;;;9.40;99.90;;;;;;5027139;28;20078;-78
2024/03/14 04:06:10;;;;;;;68.47;45.30;;;9.40;99.90;;;;;;5041350;28;20092;-78
2024/03/14 04:08:37;;;;;;;64.05;43.05;;;9.30;99.90;;;;;;5041172;28;20032;-78
2024/03/14 04:11:07;;;;;;;65.45;43.67;;;9.30;99.90;;;;;;5040888;28;20029;-78
2024/03/14 04:13:33;;;;;;;67.05;44.50;;;9.40;99.90;;;;;;5027980;28;20021;-78
2024/03/14 04:16:00;;;;;;;62.20;43.70;;;9.30;99.90;;;;;;5041143;28;20025;-78
2024/03/14 04:18:29;;;;;;;68.80;46.15;;;9.30;99.90;;;;;;5044479;28;20510;-78
2024/03/14 04:20:56;;;;;;;63.45;45.60;;;9.40;99.90;;;;;;5041240;28;20014;-78
2024/03/14 04:23:24;;;;;;;67.22;45.42;;;9.30;99.90;;;;;;5026464;28;20024;-78
2024/03/14 04:26:02;;;;;;;72.45;46.95;;;9.30;99.90;;;;;;5041005;28;20287;-78
2024/03/14 04:28:28;;;;;;;64.40;45.42;;;9.30;99.90;;;;;;5041408;28;20044;-78
2024/03/14 04:30:54;;;;;;;66.65;44.35;;;9.30;99.90;;;;;;5043978;28;20021;-78
2024/03/14 04:33:19;;;;;;;66.57;46.20;;;9.30;99.90;;;;;;5044679;28;20021;-78
2024/03/14 04:35:45;;;;;;;63.60;44.33;;;9.30;99.90;;;;;;5034641;28;20504;-78
2024/03/14 04:38:12;;;;;;;66.05;45.65;;;9.30;99.90;;;;;;5045494;28;20013;-78
2024/03/14 04:40:38;;;;;;;68.78;46.53;;;9.30;99.90;;;;;;5031204;28;20464;-77
2024/03/14 04:43:04;;;;;;;64.55;45.13;;;9.30;99.90;;;;;;5034156;28;20043;-78
2024/03/14 04:45:33;;;;;;;64.03;44.40;;;9.30;99.90;;;;;;5041363;28;20476;-78
2024/03/14 04:47:59;;;;;;;72.63;48.15;;;9.30;99.90;;;;;;5025180;28;20049;-78
2024/03/14 04:50:24;;;;;;;66.03;43.17;;;9.20;99.90;;;;;;5043778;28;20029;-78
2024/03/14 04:52:51;;;;;;;69.45;46.17;;;9.20;99.90;;;;;;5032091;28;20057;-78
2024/03/14 04:55:20;;;;;;;70.15;44.60;;;9.10;99.90;;;;;;5042100;28;20045;-78
2024/03/14 04:57:46;;;;;;;64.35;45.35;;;9.10;99.90;;;;;;5031936;28;20032;-78
2024/03/14 05:00:21;;;;;;;64.65;44.35;;;9.10;99.90;;;;;;5024048;28;20025;-78
2024/03/14 05:02:50;;;;;;;69.45;44.00;;;9.10;99.90;;;;;;5041381;28;20029;-78
2024/03/14 05:05:16;;;;;;;68.10;45.92;;;9.10;99.90;;;;;;5026227;28;20029;-78
2024/03/14 05:07:43;;;;;;;68.05;46.85;;;9.00;99.90;;;;;;5042308;28;20112;-78
2024/03/14 05:10:09;;;;;;;69.63;47.72;;;9.00;99.90;;;;;;5033954;28;20033;-78
2024/03/14 05:12:35;;;;;;;68.07;44.17;;;9.00;99.90;;;;;;5032329;28;20124;-78
2024/03/14 05:15:04;;;;;;;66.35;44.15;;;9.00;99.90;;;;;;5032283;28;20082;-78
2024/03/14 05:17:31;;;;;;;65.03;44.65;;;9.00;99.90;;;;;;5032003;28;20112;-78
2024/03/14 05:19:56;;;;;;;64.57;42.90;;;9.00;99.90;;;;;;5043701;28;20065;-78
2024/03/14 05:22:22;;;;;;;68.13;43.55;;;9.10;99.90;;;;;;5041037;28;20443;-78
2024/03/14 05:24:48;;;;;;;62.22;44.25;;;9.10;99.90;;;;;;5042755;28;20053;-78
2024/03/14 05:27:14;;;;;;;66.50;43.80;;;9.10;99.90;;;;;;5030649;28;20029;-78
2024/03/14 05:29:41;;;;;;;64.03;43.17;;;9.10;99.90;;;;;;5033266;28;20036;-78
2024/03/14 05:32:20;;;;;;;67.82;44.15;;;9.10;99.90;;;;;;5043616;28;20029;-78
2024/03/14 05:34:49;;;;;;;67.85;43.72;;;9.10;99.90;;;;;;5044800;28;20108;-78
2024/03/14 05:37:15;;;;;;;63.80;45.28;;;9.10;99.90;;;;;;5041632;28;20025;-78
2024/03/14 05:39:42;;;;;;;65.78;44.47;;;9.10;99.90;;;;;;5040761;28;20025;-77
2024/03/14 05:42:17;;;;;;;69.45;44.55;;;9.20;99.90;;;;;;5042319;28;20031;-78
2024/03/14 05:44:47;;;;;;;67.50;45.10;;;9.10;99.90;;;;;;5023411;28;20030;-78
2024/03/14 05:47:13;;;;;;;63.60;44.33;;;9.10;99.90;;;;;;5042848;28;20017;-78
2024/03/14 05:49:39;;;;;;;60.67;42.58;;;9.20;99.90;;;;;;5033144;28;20032;-78
2024/03/14 05:52:05;;;;;;;59.13;43.78;;;9.20;99.90;;;;;;5040947;28;20021;-78
2024/03/14 05:54:31;;;;;;;68.40;45.30;;;9.20;99.90;;;;;;5032349;28;20116;-78
2024/03/14 05:56:58;;;;;;;62.63;42.42;;;9.20;99.90;;;;;;5052599;28;20469;-77
2024/03/14 05:59:24;;;;;;;65.60;44.17;;;9.20;99.90;;;;;;5033467;28;20032;-78
2024/03/14 06:01:51;;;;;;;67.78;45.13;;;9.20;99.90;;;;;;5051445;28;20100;-78
2024/03/14 06:04:17;;;;;;;61.47;42.05;;;9.20;99.90;;;;;;5037495;28;20459;-78
2024/03/14 06:06:43;;;;;;;62.10;42.58;;;9.30;99.90;;;;;;5055369;28;20059;-78
2024/03/14 06:09:12;;;;;;;71.10;44.78;;;9.30;99.90;;;;;;5055564;28;20021;-78
2024/03/14 06:11:37;;;;;;;63.28;44.10;;;9.40;99.90;;;;;;5054259;28;20112;-78
2024/03/14 06:14:03;;;;;;;61.58;40.95;;;9.40;99.90;;;;;;5037467;28;20112;-78
2024/03/14 06:16:31;;;;;;;68.18;44.15;;;9.40;99.90;;;;;;5055543;28;20392;-78
2024/03/14 06:18:58;;;;;;;62.38;43.70;;;9.40;99.90;;;;;;5055462;28;20035;-78
2024/03/14 06:21:24;;;;;;;64.68;43.85;;;9.50;99.90;;;;;;5054687;28;20021;-78
2024/03/14 06:23:55;;;;;;;60.67;42.28;;;9.50;99.90;;;;;;5037490;28;20044;-78
2024/03/14 06:26:21;;;;;;;64.43;43.30;;;9.50;99.90;;;;;;5055390;28;20120;-78
2024/03/14 06:28:47;;;;;;;57.67;40.75;;;9.50;99.90;;;;;;5037106;28;20032;-78
2024/03/14 06:31:15;;;;;;;63.80;43.92;;;9.50;99.90;;;;;;5054754;28;20025;-78
2024/03/14 06:33:42;;;;;;;66.43;44.05;;;9.60;99.90;;;;;;5035039;28;20545;-78
2024/03/14 06:36:08;;;;;;;71.43;45.78;;;9.60;99.90;;;;;;5034636;28;20028;-78
2024/03/14 06:38:34;;;;;;;68.47;42.40;;;9.70;99.90;;;;;;5055091;28;20075;-78
2024/03/14 06:41:00;;;;;;;66.97;43.70;;;9.70;99.90;;;;;;5055117;28;20076;-78
2024/03/14 06:43:26;;;;;;;64.95;45.17;;;9.70;99.90;;;;;;5050289;28;20052;-78
2024/03/14 06:45:53;;;;;;;65.63;43.75;;;9.80;99.90;;;;;;5045488;28;20111;-78
2024/03/14 06:48:19;;;;;;;67.72;43.20;;;9.90;99.90;;;;;;5032857;28;20140;-77
2024/03/14 06:50:45;;;;;;;68.00;45.40;;;9.90;99.90;;;;;;5036166;28;20040;-77
2024/03/14 06:53:12;;;;;;;62.53;42.22;;;9.90;99.90;;;;;;5042598;28;20025;-77
2024/03/14 06:55:37;;;;;;;63.50;44.53;;;10.00;99.90;;;;;;5046199;28;20025;-77
2024/03/14 06:58:03;;;;;;;65.50;42.75;;;10.00;99.90;;;;;;5042479;28;20032;-77
2024/03/14 07:00:30;;;;;;;62.20;43.08;;;10.10;99.90;;;;;;5044827;28;20028;-77
2024/03/14 07:02:56;;;;;;;62.90;42.72;;;10.10;99.90;;;;;;5041894;28;20029;-77
2024/03/14 07:05:25;;;;;;;64.80;44.58;;;10.20;99.90;;;;;;5046036;28;20251;-77
2024/03/14 07:07:51;;;;;;;68.13;43.05;;;10.20;99.90;;;;;;5044823;28;20037;-77
2024/03/14 07:10:16;;;;;;;66.15;45.85;;;10.30;99.90;;;;;;5045936;28;20044;-77
2024/03/14 07:12:46;;;;;;;60.55;42.47;;;10.40;99.90;;;;;;5033877;28;20053;-77
2024/03/14 07:15:12;;;;;;;67.45;45.28;;;10.40;99.90;;;;;;5044426;28;20060;-77
2024/03/14 07:17:38;;;;;;;63.30;43.30;;;10.40;99.90;;;;;;5045720;28;20029;-77
2024/03/14 07:20:17;;;;;;;74.25;45.75;;;10.50;99.90;;;;;;5047373;28;20053;-77
2024/03/14 07:22:43;;;;;;;66.13;44.33;;;10.50;99.90;;;;;;5044971;28;20037;-77
2024/03/14 07:25:13;;;;;;;67.03;45.97;;;10.60;99.90;;;;;;5032964;28;20030;-77
2024/03/14 07:27:39;;;;;;;69.68;45.50;;;10.60;99.90;;;;;;5044967;28;20135;-77
2024/03/14 07:30:07;;;;;;;59.42;42.08;;;10.70;99.90;;;;;;5042750;28;20029;-77
2024/03/14 07:32:36;;;;;;;63.00;44.85;;;10.70;99.90;;;;;;5026621;28;20541;-77
2024/03/14 07:35:02;;;;;;;70.70;46.80;;;10.70;99.90;;;;;;5034401;28;20025;-77
2024/03/14 07:37:31;;;;;;;69.60;44.42;;;10.70;99.90;;;;;;5042699;28;20614;-77
2024/03/14 07:39:57;;;;;;;67.43;45.58;;;10.80;99.90;;;;;;5044173;28;20065;-77
2024/03/14 07:42:23;;;;;;;69.53;45.80;;;10.90;99.90;;;;;;5042916;28;20389;-78
2024/03/14 07:44:50;;;;;;;70.03;46.80;;;10.90;99.90;;;;;;5034278;28;20021;-77
2024/03/14 07:47:25;;;;;;;66.28;45.50;;;11.00;99.90;;;;;;5035114;28;20017;-77
2024/03/14 07:49:51;;;;;;;70.07;43.60;;;11.00;99.90;;;;;;5042766;28;20079;-77
2024/03/14 07:52:17;;;;;;;69.72;46.55;;;11.10;99.90;;;;;;5043967;28;20022;-78
2024/03/14 07:54:45;;;;;;;67.63;46.63;;;11.10;99.90;;;;;;5032735;28;20032;-77
2024/03/14 07:57:16;;;;;;;62.90;43.13;;;11.20;99.90;;;;;;5025543;28;20384;-77
2024/03/14 07:59:42;;;;;;;67.25;46.75;;;11.20;99.90;;;;;;5042273;28;20029;-77
2024/03/14 08:02:12;;;;;;;68.20;45.17;;;11.20;99.90;;;;;;5043478;28;20017;-77
2024/03/14 08:04:46;;;;;;;64.53;42.75;;;11.30;99.90;;;;;;5046433;28;20026;-78
2024/03/14 08:07:17;;;;;;;60.45;43.83;;;11.30;99.90;;;;;;5041590;28;20109;-77
2024/03/14 08:09:43;;;;;;;66.70;44.92;;;11.30;99.90;;;;;;5023899;28;20472;-77
2024/03/14 08:12:12;;;;;;;68.15;44.28;;;11.40;99.90;;;;;;5040957;28;20030;-78
2024/03/14 08:14:44;;;;;;;60.00;43.25;;;11.50;99.90;;;;;;5044443;28;20025;-78
2024/03/14 08:17:15;;;;;;;62.63;42.53;;;11.50;99.90;;;;;;5027698;28;20079;-78
2024/03/14 08:19:44;;;;;;;64.88;45.38;;;11.60;99.90;;;;;;5024799;28;20021;-77
2024/03/14 08:22:10;;;;;;;63.40;42.80;;;11.60;99.90;;;;;;5031856;28;20025;-77
2024/03/14 08:24:46;;;;;;;62.45;43.78;;;11.70;99.90;;;;;;5034274;28;20447;-77
2024/03/14 08:27:12;;;;;;;68.18;43.88;;;11.70;99.90;;;;;;5034392;28;20471;-78
2024/03/14 08:29:40;;;;;;;67.53;43.05;;;11.90;99.90;;;;;;5048077;28;20017;-77
2024/03/14 08:32:06;;;;;;;64.20;41.65;;;12.00;99.90;;;;;;5033914;28;20021;-78
2024/03/14 08:34:34;;;;;;;71.13;44.03;;;12.00;99.90;;;;;;5031638;28;20041;-77
2024/03/14 08:37:00;;;;;;;65.45;41.35;;;12.10;99.90;;;;;;5043764;28;20017;-77
2024/03/14 08:39:29;;;;;;;72.15;44.05;;;12.10;99.90;;;;;;5041217;28;20060;-77
2024/03/14 08:41:57;;;;;;;67.80;44.55;;;12.20;99.90;;;;;;5043863;28;20072;-77
2024/03/14 08:44:27;;;;;;;70.80;41.10;;;12.20;99.90;;;;;;5044047;28;20037;-78
2024/03/14 08:46:56;;;;;;;67.35;40.42;;;12.30;99.90;;;;;;5031372;28;20032;-77
2024/03/14 08:49:22;;;;;;;68.15;45.70;;;12.40;99.90;;;;;;5043680;28;20199;-78
2024/03/14 08:51:49;;;;;;;59.40;38.97;;;12.40;99.90;;;;;;5043694;28;20392;-78
2024/03/14 08:56:47;;;;;;;63.17;44.00;;;12.50;99.90;;;;;;5040747;28;20481;-77
2024/03/14 08:59:14;;;;;;;67.88;45.63;;;12.60;99.90;;;;;;5043599;28;20435;-78
2024/03/14 09:01:40;;;;;;;64.00;40.78;;;12.60;99.90;;;;;;5030862;28;20075;-77
2024/03/14 09:04:06;;;;;;;65.32;40.17;;;12.60;99.90;;;;;;5047589;28;20020;-78
2024/03/14 09:06:33;;;;;;;60.10;40.13;;;12.60;99.90;;;;;;5040296;28;20112;-77
2024/03/14 09:09:04;;;;;;;62.58;40.42;;;12.60;99.90;;;;;;5043220;28;20021;-77
2024/03/14 09:11:32;;;;;;;71.35;42.97;;;12.80;99.90;;;;;;5040105;28;20036;-77
2024/03/14 09:13:58;;;;;;;69.80;43.20;;;12.80;98.90;;;;;;5039905;28;20033;-77
2024/03/14 09:16:26;;;;;;;71.45;41.72;;;12.90;99.90;;;;;;5033818;28;20013;-77
2024/03/14 09:18:57;;;;;;;67.55;43.08;;;12.90;99.90;;;;;;5030372;28;20033;-77
2024/03/14 09:21:27;;;;;;;62.15;42.05;;;13.00;96.40;;;;;;5026318;28;20087;-77
2024/03/14 09:23:54;;;;;;;60.92;41.15;;;13.00;99.90;;;;;;5039703;28;20036;-78
2024/03/14 09:26:20;;;;;;;62.00;38.72;;;13.00;99.90;;;;;;5018332;28;20022;-77
2024/03/14 09:28:47;;;;;;;70.90;40.60;;;13.00;99.90;;;;;;5025477;28;20136;-77
2024/03/14 09:31:13;;;;;;;55.95;40.40;;;13.10;96.50;;;;;;5039968;28;20036;-77
2024/03/14 09:33:39;;;;;;;54.03;35.92;;;13.20;92.90;;;;;;5025747;28;20097;-78
2024/03/14 09:36:13;;;;;;;53.30;34.25;;;13.20;90.30;;;;;;5040322;28;20641;-78
2024/03/14 09:38:40;;;;;;;48.70;33.95;;;13.10;82.60;;;;;;5039172;28;20051;-78
2024/03/14 09:41:06;;;;;;;54.50;31.85;;;13.20;70.80;;;;;;5042581;28;20024;-78
2024/03/14 09:43:32;;;;;;;51.60;34.45;;;13.30;67.60;;;;;;5040067;28;20038;-77
2024/03/14 09:45:59;;;;;;;54.75;36.03;;;13.30;88.50;;;;;;5042173;28;20028;-77
2024/03/14 09:48:31;;;;;;;51.08;36.67;;;13.40;63.10;;;;;;5040072;28;20562;-77
2024/03/14 09:50:59;;;;;;;55.40;35.42;;;13.40;87.60;;;;;;5043548;28;20112;-77
2024/03/14 09:53:29;;;;;;;51.45;34.20;;;13.40;86.70;;;;;;5043931;28;20029;-77
2024/03/14 09:55:55;;;;;;;53.33;33.35;;;13.50;51.70;;;;;;5042870;28;20032;-77
2024/03/14 09:58:21;;;;;;;53.67;37.58;;;13.50;56.00;;;;;;5040169;28;20030;-77
2024/03/14 10:00:52;;;;;;;51.08;35.50;;;13.60;90.40;;;;;;5042065;28;20024;-77
2024/03/14 10:03:20;;;;;;;48.22;32.38;;;13.70;57.30;;;;;;5040961;28;20057;-77
2024/03/14 10:05:47;;;;;;;50.30;33.55;;;13.70;40.80;;;;;;5042962;28;20472;-77
2024/03/14 10:08:16;;;;;;;48.00;33.35;;;13.70;59.20;;;;;;5040188;28;20523;-77
2024/03/14 10:10:41;;;;;;;45.92;30.40;;;13.70;52.60;;;;;;5024266;28;20025;-77
2024/03/14 10:13:10;;;;;;;48.78;32.50;;;13.80;1.00;;;;;;5038696;28;20029;-77
2024/03/14 10:15:37;;;;;;;53.05;33.53;;;13.80;39.70;;;;;;5040166;28;20022;-78
2024/03/14 10:18:08;;;;;;;49.80;35.22;;;13.90;44.60;;;;;;5041461;28;20083;-77
2024/03/14 10:20:37;;;;;;;47.08;32.78;;;13.90;35.90;;;;;;5042839;28;20017;-78
2024/03/14 10:23:02;;;;;;;55.47;33.30;;;13.90;41.20;;;;;;5030270;28;20481;-77
2024/03/14 10:25:35;;;;;;;56.30;34.40;;;14.00;41.90;;;;;;5045236;28;20108;-77
2024/03/14 10:28:05;;;;;;;55.50;35.05;;;14.00;40.00;;;;;;5042628;28;20086;-77
2024/03/14 10:30:33;;;;;;;55.67;35.58;;;14.10;52.20;;;;;;5039560;28;20024;-77
2024/03/14 10:32:59;;;;;;;58.30;36.10;;;14.10;30.90;;;;;;5024413;28;20063;-77
2024/03/14 10:35:26;;;;;;;58.72;34.45;;;14.10;48.50;;;;;;5029852;28;20024;-77
2024/03/14 10:37:57;;;;;;;56.78;36.20;;;14.20;29.80;;;;;;5040653;28;20113;-78
2024/03/14 10:40:28;;;;;;;57.20;34.92;;;14.30;24.50;;;;;;5042094;28;20445;-77
2024/03/14 10:42:55;;;;;;;55.00;37.38;;;14.30;32.70;;;;;;5039124;28;20397;-77
2024/03/14 10:45:21;;;;;;;60.63;39.10;;;14.30;29.30;;;;;;5032865;28;20029;-77
2024/03/14 10:47:50;;;;;;;56.10;38.03;;;14.30;23.60;;;;;;5029577;28;20077;-78
2024/03/14 10:50:16;;;;;;;56.22;36.53;;;14.30;50.40;;;;;;5046717;28;20524;-77
2024/03/14 10:52:54;;;;;;;61.38;37.85;;;14.40;39.10;;;;;;5027552;28;20033;-77
2024/03/14 10:55:21;;;;;;;56.60;36.95;;;14.40;24.70;;;;;;5042502;28;20021;-77
2024/03/14 10:57:51;;;;;;;57.05;38.78;;;14.50;27.60;;;;;;5033153;28;20017;-77
2024/03/14 11:00:22;;;;;;;52.47;37.75;;;14.50;15.90;;;;;;5042634;28;20029;-77
2024/03/14 11:02:50;;;;;;;63.03;38.08;;;14.50;13.10;;;;;;5035695;28;20565;-78
2024/03/14 11:05:18;;;;;;;57.72;38.20;;;14.50;14.70;;;;;;5029140;28;20064;-77
2024/03/14 11:07:45;;;;;;;64.82;37.17;;;14.60;33.70;;;;;;5042738;28;20022;-77
2024/03/14 11:10:34;;;;;;;55.53;36.35;;;14.70;27.00;;;;;;5045632;28;20112;-77
2024/03/14 11:13:01;;;;;;;60.88;37.03;;;14.70;1.00;;;;;;5045248;28;20052;-78
2024/03/14 11:15:28;;;;;;;60.88;37.15;;;14.80;11.40;;;;;;5033012;28;20045;-78
2024/03/14 11:17:59;;;;;;;60.92;39.15;;;14.90;23.50;;;;;;5044974;28;20079;-77
2024/03/14 11:20:32;;;;;;;57.83;36.00;;;15.10;29.30;;;;;;5035940;28;20614;-77
2024/03/14 11:23:01;;;;;;;56.42;37.00;;;15.20;25.00;;;;;;5042127;28;20030;-77
2024/03/14 11:25:28;;;;;;;62.70;39.50;;;15.20;11.20;;;;;;5028940;28;20370;-78
2024/03/14 11:27:58;;;;;;;59.58;38.40;;;15.20;8.50;;;;;;5041985;28;20025;-78
2024/03/14 11:30:24;;;;;;;59.85;38.28;;;15.30;1.00;;;;;;5024089;28;20026;-77
2024/03/14 11:32:58;;;;;;;65.75;38.92;;;15.40;13.50;;;;;;5023920;28;20188;-77
2024/03/14 11:35:45;;;;;;;57.92;37.72;;;15.50;12.10;;;;;;5043776;28;20044;-77
2024/03/14 11:38:19;;;;;;;59.20;37.88;;;15.70;1.00;;;;;;5042459;28;20076;-77
2024/03/14 11:40:58;;;;;;;59.08;38.92;;;15.60;6.80;;;;;;5041828;28;20465;-77
2024/03/14 11:43:26;;;;;;;64.55;40.33;;;15.60;1.00;;;;;;5042888;28;20026;-77
2024/03/14 11:45:59;;;;;;;62.03;39.38;;;15.60;1.00;;;;;;5034819;28;20029;-77
2024/03/14 11:48:26;;;;;;;74.63;39.85;;;15.50;1.00;;;;;;5041660;28;20077;-77
2024/03/14 11:50:53;;;;;;;59.53;40.08;;;15.70;1.00;;;;;;5047392;28;20426;-77
2024/03/14 11:53:22;;;;;;;54.08;37.10;;;15.90;1.00;;;;;;5033780;28;20033;-77
2024/03/14 11:55:49;;;;;;;58.88;38.35;;;16.10;1.00;;;;;;5045318;28;20029;-77
2024/03/14 11:58:16;;;;;;;60.22;39.78;;;16.10;1.00;;;;;;5043982;28;20021;-77
2024/03/14 12:00:42;;;;;;;56.95;38.30;;;16.10;1.00;;;;;;5025719;28;20032;-77
2024/03/14 12:03:11;;;;;;;60.03;38.50;;;16.10;1.00;;;;;;5044292;28;20024;-75
2024/03/14 12:05:44;;;;;;;57.78;37.67;;;16.00;1.00;;;;;;5041620;28;20025;-77
2024/03/14 12:08:15;;;;;;;60.30;39.53;;;15.90;1.00;;;;;;5042959;28;20021;-78
2024/03/14 12:10:45;;;;;;;63.15;38.60;;;15.80;1.00;;;;;;5039406;28;20024;-77
2024/03/14 12:13:21;;;;;;;56.53;38.42;;;15.90;1.00;;;;;;5023929;28;20399;-77
2024/03/14 12:15:59;;;;;;;57.70;39.13;;;16.00;1.00;;;;;;5033789;28;20093;-77
2024/03/14 12:18:25;;;;;;;55.10;38.15;;;16.00;1.00;;;;;;5037654;28;20068;-77
2024/03/14 12:20:53;;;;;;;59.25;37.30;;;16.20;5.70;;;;;;5048903;28;20032;-77
2024/03/14 12:23:22;;;;;;;52.67;36.15;;;16.40;1.00;;;;;;5035604;28;20025;-77
2024/03/14 12:25:53;;;;;;;54.38;38.38;;;16.50;1.00;;;;;;5038156;28;20108;-77
2024/03/14 12:28:19;;;;;;;48.58;34.80;;;16.70;1.00;;;;;;5032266;28;20029;-77
2024/03/14 12:30:56;;;;;;;52.95;34.22;;;16.70;1.00;;;;;;5031517;28;20025;-77
2024/03/14 12:33:27;;;;;;;53.85;34.17;;;16.80;1.00;;;;;;5033365;28;20057;-77
2024/03/14 12:35:54;;;;;;;55.13;33.35;;;16.80;1.00;;;;;;5046636;28;20029;-75
2024/03/14 12:38:23;;;;;;;54.92;34.88;;;16.90;99.90;;;;;;5038622;28;20017;-75